レシフェ の空港の天気 - METARとTAF

レシフェ・グアララペス国際空港 ( SBRF / REC ) - ブラジル ペルナンブーコ州レシフェ
飛行場実況気象(Metar)
観測時間08/17 08:00 BRT (08/17 11:00 UTC)
風向・風速東南東 5m/s
視程10km以上
天気現象
全天の4割程度の雲 雲底高度 670m
全天の4割程度の雲 雲底高度 1520m
気温26℃
湿度74%
気圧1017hPa
METARSBRF 171100Z 12010KT 9999 SCT022 SCT050 26/21 Q1017
過去の天気等 Google飛行場航空写真 Wunderground天気予報

過去48時間のMETAR

飛行場予報(TAF)
発表時間: 8/17 07:00 BRT (8/17 10:00 UTC)
予報対象時間: 17日9時 BRT ~ 18日9時 BRT
風向・風速南南東 5m/s
視程8000m
全天の4割程度の雲 雲底高度 580m
少しの塔状積雲 雲底高度 730m
17日11時 BRT ~ 17日12時 BRT に徐々に
全天の4割程度の雲 雲底高度 640m
18日4時 BRT ~ 18日5時 BRT に徐々に
全天の4割程度の雲 雲底高度 300m
全天の4割程度の雲 雲底高度 460m
TAF SBRF 171000Z 1712/1812 16010KT 8000 SCT019 FEW024TCU TX26/1716Z TN21/1806Z
BECMG 1714/1715 SCT021
BECMG 1807/1808 SCT010 SCT015 RMK PFM